sensor_id;sensor_type;location;lat;lon;timestamp;temperature;humidity
66373;SHT30;53168;51.146;17.120;2023-06-22T00:02:05;22.91;67.91
66373;SHT30;53168;51.146;17.120;2023-06-22T00:04:39;22.91;67.99
66373;SHT30;53168;51.146;17.120;2023-06-22T00:07:13;22.88;68.07
66373;SHT30;53168;51.146;17.120;2023-06-22T00:09:46;22.87;68.08
66373;SHT30;53168;51.146;17.120;2023-06-22T00:12:20;22.85;68.18
66373;SHT30;53168;51.146;17.120;2023-06-22T00:14:54;22.84;68.21
66373;SHT30;53168;51.146;17.120;2023-06-22T00:17:27;22.82;68.29
66373;SHT30;53168;51.146;17.120;2023-06-22T00:20:01;22.81;68.38
66373;SHT30;53168;51.146;17.120;2023-06-22T00:22:38;22.77;68.55
66373;SHT30;53168;51.146;17.120;2023-06-22T00:25:13;22.73;68.61
66373;SHT30;53168;51.146;17.120;2023-06-22T00:27:47;22.69;68.74
66373;SHT30;53168;51.146;17.120;2023-06-22T00:30:21;22.65;68.89
66373;SHT30;53168;51.146;17.120;2023-06-22T00:32:54;22.61;68.99
66373;SHT30;53168;51.146;17.120;2023-06-22T00:35:29;22.58;69.08
66373;SHT30;53168;51.146;17.120;2023-06-22T00:38:03;22.54;69.23
66373;SHT30;53168;51.146;17.120;2023-06-22T00:40:37;22.50;69.43
66373;SHT30;53168;51.146;17.120;2023-06-22T00:43:11;22.46;69.62
66373;SHT30;53168;51.146;17.120;2023-06-22T00:45:43;22.42;69.74
66373;SHT30;53168;51.146;17.120;2023-06-22T00:48:18;22.38;69.89
66373;SHT30;53168;51.146;17.120;2023-06-22T00:50:52;22.34;70.01
66373;SHT30;53168;51.146;17.120;2023-06-22T00:53:26;22.30;70.23
66373;SHT30;53168;51.146;17.120;2023-06-22T00:56:00;22.26;70.32
66373;SHT30;53168;51.146;17.120;2023-06-22T00:58:36;22.22;70.36
66373;SHT30;53168;51.146;17.120;2023-06-22T01:01:12;22.20;70.37
66373;SHT30;53168;51.146;17.120;2023-06-22T01:03:46;22.17;70.51
66373;SHT30;53168;51.146;17.120;2023-06-22T01:06:29;22.13;70.94
66373;SHT30;53168;51.146;17.120;2023-06-22T01:09:17;22.10;70.94
66373;SHT30;53168;51.146;17.120;2023-06-22T01:12:04;22.07;70.85
66373;SHT30;53168;51.146;17.120;2023-06-22T01:14:45;22.05;71.03
66373;SHT30;53168;51.146;17.120;2023-06-22T01:17:25;22.01;71.19
66373;SHT30;53168;51.146;17.120;2023-06-22T01:20:02;21.98;71.53
66373;SHT30;53168;51.146;17.120;2023-06-22T01:23:02;21.92;71.81
66373;SHT30;53168;51.146;17.120;2023-06-22T01:25:56;21.85;71.85
66373;SHT30;53168;51.146;17.120;2023-06-22T01:28:46;21.79;71.89
66373;SHT30;53168;51.146;17.120;2023-06-22T01:31:26;21.75;72.04
66373;SHT30;53168;51.146;17.120;2023-06-22T01:34:04;21.69;72.10
66373;SHT30;53168;51.146;17.120;2023-06-22T01:36:41;21.65;72.15
66373;SHT30;53168;51.146;17.120;2023-06-22T01:39:17;21.61;72.51
66373;SHT30;53168;51.146;17.120;2023-06-22T01:41:55;21.56;72.41
66373;SHT30;53168;51.146;17.120;2023-06-22T01:44:30;21.51;72.30
66373;SHT30;53168;51.146;17.120;2023-06-22T01:47:06;21.47;72.56
66373;SHT30;53168;51.146;17.120;2023-06-22T01:49:41;21.43;72.70
66373;SHT30;53168;51.146;17.120;2023-06-22T01:52:15;21.39;72.88
66373;SHT30;53168;51.146;17.120;2023-06-22T01:54:49;21.35;72.74
66373;SHT30;53168;51.146;17.120;2023-06-22T01:57:23;21.31;72.80
66373;SHT30;53168;51.146;17.120;2023-06-22T02:00:02;21.26;72.86
66373;SHT30;53168;51.146;17.120;2023-06-22T02:02:53;21.21;73.06
66373;SHT30;53168;51.146;17.120;2023-06-22T02:05:38;21.15;73.06
66373;SHT30;53168;51.146;17.120;2023-06-22T02:08:22;21.10;73.35
66373;SHT30;53168;51.146;17.120;2023-06-22T02:11:04;21.04;73.42
66373;SHT30;53168;51.146;17.120;2023-06-22T02:13:40;20.98;73.64
66373;SHT30;53168;51.146;17.120;2023-06-22T02:16:16;20.93;73.54
66373;SHT30;53168;51.146;17.120;2023-06-22T02:18:52;20.92;73.61
66373;SHT30;53168;51.146;17.120;2023-06-22T02:21:27;20.90;73.67
66373;SHT30;53168;51.146;17.120;2023-06-22T02:24:00;20.90;73.73
66373;SHT30;53168;51.146;17.120;2023-06-22T02:26:34;20.89;73.65
66373;SHT30;53168;51.146;17.120;2023-06-22T02:29:10;20.88;73.75
66373;SHT30;53168;51.146;17.120;2023-06-22T02:31:46;20.86;73.95
66373;SHT30;53168;51.146;17.120;2023-06-22T02:34:20;20.84;74.16
66373;SHT30;53168;51.146;17.120;2023-06-22T02:36:54;20.82;74.23
66373;SHT30;53168;51.146;17.120;2023-06-22T02:39:39;20.79;74.39
66373;SHT30;53168;51.146;17.120;2023-06-22T02:42:13;20.75;74.40
66373;SHT30;53168;51.146;17.120;2023-06-22T02:44:51;20.74;74.50
66373;SHT30;53168;51.146;17.120;2023-06-22T02:47:25;20.70;74.71
66373;SHT30;53168;51.146;17.120;2023-06-22T02:49:59;20.68;74.91
66373;SHT30;53168;51.146;17.120;2023-06-22T02:52:35;20.66;74.95
66373;SHT30;53168;51.146;17.120;2023-06-22T02:55:11;20.64;75.13
66373;SHT30;53168;51.146;17.120;2023-06-22T02:57:45;20.60;75.42
66373;SHT30;53168;51.146;17.120;2023-06-22T03:00:23;20.59;75.48
66373;SHT30;53168;51.146;17.120;2023-06-22T03:03:05;20.57;75.46
66373;SHT30;53168;51.146;17.120;2023-06-22T03:05:39;20.55;75.64
66373;SHT30;53168;51.146;17.120;2023-06-22T03:08:13;20.53;75.53
66373;SHT30;53168;51.146;17.120;2023-06-22T03:10:47;20.52;75.54
66373;SHT30;53168;51.146;17.120;2023-06-22T03:13:21;20.52;75.66
66373;SHT30;53168;51.146;17.120;2023-06-22T03:15:55;20.51;75.60
66373;SHT30;53168;51.146;17.120;2023-06-22T03:18:29;20.51;75.65
66373;SHT30;53168;51.146;17.120;2023-06-22T03:21:04;20.52;75.66
66373;SHT30;53168;51.146;17.120;2023-06-22T03:23:38;20.50;75.65
66373;SHT30;53168;51.146;17.120;2023-06-22T03:26:11;20.51;75.71
66373;SHT30;53168;51.146;17.120;2023-06-22T03:28:48;20.50;75.89
66373;SHT30;53168;51.146;17.120;2023-06-22T03:31:23;20.47;75.89
66373;SHT30;53168;51.146;17.120;2023-06-22T03:33:56;20.43;75.87
66373;SHT30;53168;51.146;17.120;2023-06-22T03:36:30;20.43;75.72
66373;SHT30;53168;51.146;17.120;2023-06-22T03:39:05;20.44;75.80
66373;SHT30;53168;51.146;17.120;2023-06-22T03:41:39;20.46;75.95
66373;SHT30;53168;51.146;17.120;2023-06-22T03:44:13;20.47;75.85
66373;SHT30;53168;51.146;17.120;2023-06-22T03:46:46;20.50;75.84
66373;SHT30;53168;51.146;17.120;2023-06-22T03:49:22;20.50;75.91
66373;SHT30;53168;51.146;17.120;2023-06-22T03:51:56;20.51;75.87
66373;SHT30;53168;51.146;17.120;2023-06-22T03:54:32;20.53;75.85
66373;SHT30;53168;51.146;17.120;2023-06-22T03:57:06;20.55;75.86
66373;SHT30;53168;51.146;17.120;2023-06-22T03:59:41;20.56;75.84
66373;SHT30;53168;51.146;17.120;2023-06-22T04:02:15;20.60;75.80
66373;SHT30;53168;51.146;17.120;2023-06-22T04:04:49;20.65;75.77
66373;SHT30;53168;51.146;17.120;2023-06-22T04:07:23;20.71;75.74
66373;SHT30;53168;51.146;17.120;2023-06-22T04:09:57;20.79;75.69
66373;SHT30;53168;51.146;17.120;2023-06-22T04:12:31;20.85;75.66
66373;SHT30;53168;51.146;17.120;2023-06-22T04:15:06;20.89;75.62
66373;SHT30;53168;51.146;17.120;2023-06-22T04:17:42;20.96;75.58
66373;SHT30;53168;51.146;17.120;2023-06-22T04:20:16;21.03;75.50
66373;SHT30;53168;51.146;17.120;2023-06-22T04:22:49;21.09;75.45
66373;SHT30;53168;51.146;17.120;2023-06-22T04:25:23;21.16;75.48
66373;SHT30;53168;51.146;17.120;2023-06-22T04:27:57;21.22;75.41
66373;SHT30;53168;51.146;17.120;2023-06-22T04:30:34;21.25;75.39
66373;SHT30;53168;51.146;17.120;2023-06-22T04:33:10;21.30;75.42
66373;SHT30;53168;51.146;17.120;2023-06-22T04:35:46;21.39;75.41
66373;SHT30;53168;51.146;17.120;2023-06-22T04:38:19;21.46;75.39
66373;SHT30;53168;51.146;17.120;2023-06-22T04:40:56;21.52;75.48
66373;SHT30;53168;51.146;17.120;2023-06-22T04:43:33;21.59;75.33
66373;SHT30;53168;51.146;17.120;2023-06-22T04:46:07;21.67;75.23
66373;SHT30;53168;51.146;17.120;2023-06-22T04:48:40;21.76;75.18
66373;SHT30;53168;51.146;17.120;2023-06-22T04:51:15;21.86;75.12
66373;SHT30;53168;51.146;17.120;2023-06-22T04:53:52;21.96;75.05
66373;SHT30;53168;51.146;17.120;2023-06-22T04:56:31;22.04;74.99
66373;SHT30;53168;51.146;17.120;2023-06-22T04:59:05;22.11;74.91
66373;SHT30;53168;51.146;17.120;2023-06-22T05:01:39;22.19;74.80
66373;SHT30;53168;51.146;17.120;2023-06-22T05:04:13;22.29;74.75
66373;SHT30;53168;51.146;17.120;2023-06-22T05:06:47;22.41;74.68
66373;SHT30;53168;51.146;17.120;2023-06-22T05:09:22;22.49;74.57
66373;SHT30;53168;51.146;17.120;2023-06-22T05:11:57;22.59;74.45
66373;SHT30;53168;51.146;17.120;2023-06-22T05:14:33;22.70;74.31
66373;SHT30;53168;51.146;17.120;2023-06-22T05:17:09;22.83;73.94
66373;SHT30;53168;51.146;17.120;2023-06-22T05:19:46;22.94;73.70
66373;SHT30;53168;51.146;17.120;2023-06-22T05:22:21;23.05;73.18
66373;SHT30;53168;51.146;17.120;2023-06-22T05:25:02;23.16;72.79
66373;SHT30;53168;51.146;17.120;2023-06-22T05:27:40;23.24;72.56
66373;SHT30;53168;51.146;17.120;2023-06-22T05:30:15;23.32;71.88
66373;SHT30;53168;51.146;17.120;2023-06-22T05:32:54;23.44;71.37
66373;SHT30;53168;51.146;17.120;2023-06-22T05:35:40;23.52;70.56
66373;SHT30;53168;51.146;17.120;2023-06-22T05:38:14;23.55;70.25
66373;SHT30;53168;51.146;17.120;2023-06-22T05:40:50;23.67;70.50
66373;SHT30;53168;51.146;17.120;2023-06-22T05:43:30;23.79;69.68
66373;SHT30;53168;51.146;17.120;2023-06-22T05:46:05;23.89;69.39
66373;SHT30;53168;51.146;17.120;2023-06-22T05:48:39;24.04;69.23
66373;SHT30;53168;51.146;17.120;2023-06-22T05:51:20;24.23;68.94
66373;SHT30;53168;51.146;17.120;2023-06-22T05:53:54;24.34;68.26
66373;SHT30;53168;51.146;17.120;2023-06-22T05:56:28;24.38;67.68
66373;SHT30;53168;51.146;17.120;2023-06-22T05:59:02;24.37;67.41
66373;SHT30;53168;51.146;17.120;2023-06-22T06:01:36;24.30;67.07
66373;SHT30;53168;51.146;17.120;2023-06-22T06:04:11;24.22;67.24
66373;SHT30;53168;51.146;17.120;2023-06-22T06:06:46;24.22;67.30
66373;SHT30;53168;51.146;17.120;2023-06-22T06:09:20;24.22;67.02
66373;SHT30;53168;51.146;17.120;2023-06-22T06:11:54;24.26;67.24
66373;SHT30;53168;51.146;17.120;2023-06-22T06:14:30;24.36;67.28
66373;SHT30;53168;51.146;17.120;2023-06-22T06:17:04;24.51;67.16
66373;SHT30;53168;51.146;17.120;2023-06-22T06:19:40;24.63;66.66
66373;SHT30;53168;51.146;17.120;2023-06-22T06:22:16;24.71;66.60
66373;SHT30;53168;51.146;17.120;2023-06-22T06:24:51;24.81;66.36
66373;SHT30;53168;51.146;17.120;2023-06-22T06:27:25;24.87;65.76
66373;SHT30;53168;51.146;17.120;2023-06-22T06:30:05;24.90;65.81
66373;SHT30;53168;51.146;17.120;2023-06-22T06:32:41;24.97;65.96
66373;SHT30;53168;51.146;17.120;2023-06-22T06:35:16;25.10;65.73
66373;SHT30;53168;51.146;17.120;2023-06-22T06:37:51;25.23;65.60
66373;SHT30;53168;51.146;17.120;2023-06-22T06:40:25;25.31;65.45
66373;SHT30;53168;51.146;17.120;2023-06-22T06:43:00;25.38;65.25
66373;SHT30;53168;51.146;17.120;2023-06-22T06:45:34;25.42;64.94
66373;SHT30;53168;51.146;17.120;2023-06-22T06:48:07;25.48;64.96
66373;SHT30;53168;51.146;17.120;2023-06-22T06:50:44;25.56;64.85
66373;SHT30;53168;51.146;17.120;2023-06-22T06:53:18;25.61;64.51
66373;SHT30;53168;51.146;17.120;2023-06-22T06:56:01;25.66;64.60
66373;SHT30;53168;51.146;17.120;2023-06-22T06:59:05;25.75;64.22
66373;SHT30;53168;51.146;17.120;2023-06-22T07:09:05;26.26;63.16
66373;SHT30;53168;51.146;17.120;2023-06-22T07:12:00;26.44;62.87
66373;SHT30;53168;51.146;17.120;2023-06-22T07:51:52;27.51;58.66
66373;SHT30;53168;51.146;17.120;2023-06-22T07:54:27;27.60;58.86
66373;SHT30;53168;51.146;17.120;2023-06-22T07:57:01;27.57;58.59
66373;SHT30;53168;51.146;17.120;2023-06-22T07:59:36;27.48;58.59
66373;SHT30;53168;51.146;17.120;2023-06-22T08:05:26;27.27;58.57
66373;SHT30;53168;51.146;17.120;2023-06-22T08:08:01;27.25;58.63
66373;SHT30;53168;51.146;17.120;2023-06-22T08:10:36;27.23;58.53
66373;SHT30;53168;51.146;17.120;2023-06-22T08:13:11;27.23;58.49
66373;SHT30;53168;51.146;17.120;2023-06-22T08:15:45;27.12;58.22
66373;SHT30;53168;51.146;17.120;2023-06-22T08:18:20;27.02;58.41
66373;SHT30;53168;51.146;17.120;2023-06-22T08:20:54;26.98;58.42
66373;SHT30;53168;51.146;17.120;2023-06-22T08:23:28;27.01;57.99
66373;SHT30;53168;51.146;17.120;2023-06-22T08:26:06;27.08;57.97
66373;SHT30;53168;51.146;17.120;2023-06-22T08:28:39;27.02;57.91
66373;SHT30;53168;51.146;17.120;2023-06-22T08:31:13;27.13;57.47
66373;SHT30;53168;51.146;17.120;2023-06-22T08:33:48;27.37;57.07
66373;SHT30;53168;51.146;17.120;2023-06-22T08:36:23;27.65;57.09
66373;SHT30;53168;51.146;17.120;2023-06-22T08:38:59;27.94;56.84
66373;SHT30;53168;51.146;17.120;2023-06-22T08:41:34;28.23;56.12
66373;SHT30;53168;51.146;17.120;2023-06-22T08:44:08;28.36;55.26
66373;SHT30;53168;51.146;17.120;2023-06-22T08:46:42;28.41;55.57
66373;SHT30;53168;51.146;17.120;2023-06-22T08:49:17;28.67;55.54
66373;SHT30;53168;51.146;17.120;2023-06-22T08:51:53;29.02;55.08
66373;SHT30;53168;51.146;17.120;2023-06-22T08:54:33;29.19;53.64
66373;SHT30;53168;51.146;17.120;2023-06-22T08:57:08;29.23;53.67
66373;SHT30;53168;51.146;17.120;2023-06-22T08:59:41;29.25;53.67
66373;SHT30;53168;51.146;17.120;2023-06-22T09:02:15;29.30;52.65
66373;SHT30;53168;51.146;17.120;2023-06-22T09:04:50;29.31;52.35
66373;SHT30;53168;51.146;17.120;2023-06-22T09:07:27;29.35;52.42
66373;SHT30;53168;51.146;17.120;2023-06-22T09:10:01;29.24;52.28
66373;SHT30;53168;51.146;17.120;2023-06-22T09:12:36;29.05;52.58
66373;SHT30;53168;51.146;17.120;2023-06-22T09:15:11;29.11;52.28
66373;SHT30;53168;51.146;17.120;2023-06-22T09:17:48;29.31;52.52
66373;SHT30;53168;51.146;17.120;2023-06-22T09:20:25;29.54;51.51
66373;SHT30;53168;51.146;17.120;2023-06-22T09:23:04;29.69;51.48
66373;SHT30;53168;51.146;17.120;2023-06-22T09:25:39;29.83;51.13
66373;SHT30;53168;51.146;17.120;2023-06-22T09:28:13;29.96;50.73
66373;SHT30;53168;51.146;17.120;2023-06-22T09:30:47;30.08;50.52
66373;SHT30;53168;51.146;17.120;2023-06-22T09:33:35;30.05;49.87
66373;SHT30;53168;51.146;17.120;2023-06-22T09:36:16;29.94;49.74
66373;SHT30;53168;51.146;17.120;2023-06-22T09:38:54;29.94;49.81
66373;SHT30;53168;51.146;17.120;2023-06-22T09:41:52;30.03;49.73
66373;SHT30;53168;51.146;17.120;2023-06-22T09:44:28;30.26;49.45
66373;SHT30;53168;51.146;17.120;2023-06-22T09:47:18;30.38;49.18
66373;SHT30;53168;51.146;17.120;2023-06-22T09:49:54;30.61;49.22
66373;SHT30;53168;51.146;17.120;2023-06-22T09:52:34;30.61;48.85
66373;SHT30;53168;51.146;17.120;2023-06-22T09:55:18;30.60;48.80
66373;SHT30;53168;51.146;17.120;2023-06-22T09:57:56;30.53;48.09
66373;SHT30;53168;51.146;17.120;2023-06-22T10:00:33;30.48;48.24
66373;SHT30;53168;51.146;17.120;2023-06-22T10:32:04;30.17;45.91
66373;SHT30;53168;51.146;17.120;2023-06-22T10:34:51;30.19;46.26
66373;SHT30;53168;51.146;17.120;2023-06-22T10:37:29;30.21;46.44
66373;SHT30;53168;51.146;17.120;2023-06-22T10:40:08;30.12;46.40
66373;SHT30;53168;51.146;17.120;2023-06-22T10:45:59;30.34;46.30
66373;SHT30;53168;51.146;17.120;2023-06-22T10:48:41;30.68;45.59
66373;SHT30;53168;51.146;17.120;2023-06-22T10:51:17;30.93;44.80
66373;SHT30;53168;51.146;17.120;2023-06-22T10:54:32;31.07;43.89
66373;SHT30;53168;51.146;17.120;2023-06-22T10:57:14;31.16;44.21
66373;SHT30;53168;51.146;17.120;2023-06-22T10:59:49;31.31;43.87
66373;SHT30;53168;51.146;17.120;2023-06-22T11:02:24;31.58;44.45
66373;SHT30;53168;51.146;17.120;2023-06-22T11:05:00;31.93;44.12
66373;SHT30;53168;51.146;17.120;2023-06-22T11:07:37;32.20;43.90
66373;SHT30;53168;51.146;17.120;2023-06-22T11:10:14;32.40;43.74
66373;SHT30;53168;51.146;17.120;2023-06-22T11:12:48;32.62;42.57
66373;SHT30;53168;51.146;17.120;2023-06-22T11:15:24;32.62;43.02
66373;SHT30;53168;51.146;17.120;2023-06-22T11:18:03;32.75;42.72
66373;SHT30;53168;51.146;17.120;2023-06-22T11:20:41;32.61;41.92
66373;SHT30;53168;51.146;17.120;2023-06-22T11:23:17;32.19;42.18
66373;SHT30;53168;51.146;17.120;2023-06-22T11:25:51;32.12;42.59
66373;SHT30;53168;51.146;17.120;2023-06-22T11:28:35;32.46;42.29
66373;SHT30;53168;51.146;17.120;2023-06-22T11:31:12;32.87;41.80
66373;SHT30;53168;51.146;17.120;2023-06-22T11:34:09;33.35;40.58
66373;SHT30;53168;51.146;17.120;2023-06-22T11:36:43;33.53;40.41
66373;SHT30;53168;51.146;17.120;2023-06-22T11:39:18;33.88;40.66
66373;SHT30;53168;51.146;17.120;2023-06-22T11:42:16;33.71;40.14
66373;SHT30;53168;51.146;17.120;2023-06-22T11:49:14;33.40;39.61
66373;SHT30;53168;51.146;17.120;2023-06-22T11:51:48;33.69;38.96
66373;SHT30;53168;51.146;17.120;2023-06-22T11:54:21;33.89;38.64
66373;SHT30;53168;51.146;17.120;2023-06-22T11:56:55;33.80;38.93
66373;SHT30;53168;51.146;17.120;2023-06-22T11:59:29;33.93;39.52
66373;SHT30;53168;51.146;17.120;2023-06-22T12:02:03;34.52;38.98
66373;SHT30;53168;51.146;17.120;2023-06-22T12:04:47;34.99;37.66
66373;SHT30;53168;51.146;17.120;2023-06-22T12:07:38;35.43;37.92
66373;SHT30;53168;51.146;17.120;2023-06-22T12:10:12;35.95;37.00
66373;SHT30;53168;51.146;17.120;2023-06-22T12:12:49;36.37;37.05
66373;SHT30;53168;51.146;17.120;2023-06-22T12:15:53;36.67;36.26
66373;SHT30;53168;51.146;17.120;2023-06-22T12:18:38;36.90;35.61
66373;SHT30;53168;51.146;17.120;2023-06-22T12:21:16;36.92;36.06
66373;SHT30;53168;51.146;17.120;2023-06-22T12:23:50;37.13;35.79
66373;SHT30;53168;51.146;17.120;2023-06-22T12:26:27;37.19;35.23
66373;SHT30;53168;51.146;17.120;2023-06-22T12:29:05;36.89;34.72
66373;SHT30;53168;51.146;17.120;2023-06-22T12:31:41;36.05;35.02
66373;SHT30;53168;51.146;17.120;2023-06-22T12:34:15;35.37;35.66
66373;SHT30;53168;51.146;17.120;2023-06-22T12:36:49;34.73;36.17
66373;SHT30;53168;51.146;17.120;2023-06-22T12:39:25;34.45;36.37
66373;SHT30;53168;51.146;17.120;2023-06-22T12:41:59;34.59;36.40
66373;SHT30;53168;51.146;17.120;2023-06-22T12:44:33;34.51;36.59
66373;SHT30;53168;51.146;17.120;2023-06-22T12:47:07;34.61;36.68
66373;SHT30;53168;51.146;17.120;2023-06-22T12:49:41;35.12;36.31
66373;SHT30;53168;51.146;17.120;2023-06-22T12:52:15;35.45;35.51
66373;SHT30;53168;51.146;17.120;2023-06-22T12:54:49;35.89;35.26
66373;SHT30;53168;51.146;17.120;2023-06-22T12:57:25;36.33;34.76
66373;SHT30;53168;51.146;17.120;2023-06-22T12:59:59;36.53;34.81
66373;SHT30;53168;51.146;17.120;2023-06-22T13:02:35;36.87;34.31
66373;SHT30;53168;51.146;17.120;2023-06-22T13:05:13;37.26;33.94
66373;SHT30;53168;51.146;17.120;2023-06-22T13:07:47;37.65;33.16
66373;SHT30;53168;51.146;17.120;2023-06-22T13:10:21;37.93;33.09
66373;SHT30;53168;51.146;17.120;2023-06-22T13:12:55;37.77;31.97
66373;SHT30;53168;51.146;17.120;2023-06-22T13:15:32;37.39;32.64
66373;SHT30;53168;51.146;17.120;2023-06-22T13:18:06;37.59;32.50
66373;SHT30;53168;51.146;17.120;2023-06-22T13:20:40;37.79;31.98
66373;SHT30;53168;51.146;17.120;2023-06-22T13:23:15;37.85;32.31
66373;SHT30;53168;51.146;17.120;2023-06-22T13:25:48;38.06;31.76
66373;SHT30;53168;51.146;17.120;2023-06-22T13:28:23;38.16;31.31
66373;SHT30;53168;51.146;17.120;2023-06-22T13:30:59;38.13;31.07
66373;SHT30;53168;51.146;17.120;2023-06-22T13:33:34;38.28;31.57
66373;SHT30;53168;51.146;17.120;2023-06-22T13:36:12;38.51;30.88
66373;SHT30;53168;51.146;17.120;2023-06-22T13:38:47;38.62;30.82
66373;SHT30;53168;51.146;17.120;2023-06-22T13:41:21;38.71;30.47
66373;SHT30;53168;51.146;17.120;2023-06-22T13:43:56;38.80;30.37
66373;SHT30;53168;51.146;17.120;2023-06-22T13:46:36;38.79;29.96
66373;SHT30;53168;51.146;17.120;2023-06-22T13:52:00;38.81;30.55
66373;SHT30;53168;51.146;17.120;2023-06-22T13:57:36;39.06;29.27
66373;SHT30;53168;51.146;17.120;2023-06-22T14:01:01;38.89;29.88
66373;SHT30;53168;51.146;17.120;2023-06-22T14:03:45;38.81;29.69
66373;SHT30;53168;51.146;17.120;2023-06-22T14:06:20;38.77;29.80
66373;SHT30;53168;51.146;17.120;2023-06-22T14:08:55;38.27;29.86
66373;SHT30;53168;51.146;17.120;2023-06-22T14:11:34;37.73;30.18
66373;SHT30;53168;51.146;17.120;2023-06-22T14:14:40;37.19;30.64
66373;SHT30;53168;51.146;17.120;2023-06-22T14:17:21;36.93;30.49
66373;SHT30;53168;51.146;17.120;2023-06-22T14:20:09;36.74;30.52
66373;SHT30;53168;51.146;17.120;2023-06-22T14:23:20;36.73;30.91
66373;SHT30;53168;51.146;17.120;2023-06-22T14:26:11;36.94;30.71
66373;SHT30;53168;51.146;17.120;2023-06-22T14:29:38;37.08;30.55
66373;SHT30;53168;51.146;17.120;2023-06-22T14:36:01;38.37;29.68
66373;SHT30;53168;51.146;17.120;2023-06-22T14:39:10;38.96;28.97
66373;SHT30;53168;51.146;17.120;2023-06-22T14:42:02;39.14;29.15
66373;SHT30;53168;51.146;17.120;2023-06-22T14:44:54;39.09;28.65
66373;SHT30;53168;51.146;17.120;2023-06-22T14:47:34;38.63;29.09
66373;SHT30;53168;51.146;17.120;2023-06-22T14:50:26;38.41;29.01
66373;SHT30;53168;51.146;17.120;2023-06-22T14:53:58;38.33;29.22
66373;SHT30;53168;51.146;17.120;2023-06-22T14:57:15;37.98;29.13
66373;SHT30;53168;51.146;17.120;2023-06-22T15:00:58;38.02;29.29
66373;SHT30;53168;51.146;17.120;2023-06-22T15:07:23;38.74;29.18
66373;SHT30;53168;51.146;17.120;2023-06-22T15:10:09;39.18;28.57
66373;SHT30;53168;51.146;17.120;2023-06-22T15:12:43;39.32;28.58
66373;SHT30;53168;51.146;17.120;2023-06-22T15:15:17;39.52;28.00
66373;SHT30;53168;51.146;17.120;2023-06-22T15:17:54;39.36;27.79
66373;SHT30;53168;51.146;17.120;2023-06-22T15:20:45;39.06;27.65
66373;SHT30;53168;51.146;17.120;2023-06-22T15:23:37;38.94;27.81
66373;SHT30;53168;51.146;17.120;2023-06-22T15:30:21;39.05;27.78
66373;SHT30;53168;51.146;17.120;2023-06-22T15:33:39;39.18;27.68
66373;SHT30;53168;51.146;17.120;2023-06-22T15:40:12;39.27;27.38
66373;SHT30;53168;51.146;17.120;2023-06-22T15:43:04;39.24;27.10
66373;SHT30;53168;51.146;17.120;2023-06-22T15:46:09;39.00;27.20
66373;SHT30;53168;51.146;17.120;2023-06-22T15:49:02;38.97;27.38
66373;SHT30;53168;51.146;17.120;2023-06-22T15:51:40;39.05;27.29
66373;SHT30;53168;51.146;17.120;2023-06-22T15:55:06;39.04;27.40
66373;SHT30;53168;51.146;17.120;2023-06-22T15:58:11;38.96;27.48
66373;SHT30;53168;51.146;17.120;2023-06-22T16:00:57;39.09;27.38
66373;SHT30;53168;51.146;17.120;2023-06-22T16:04:06;39.01;27.39
66373;SHT30;53168;51.146;17.120;2023-06-22T16:06:47;38.85;27.41
66373;SHT30;53168;51.146;17.120;2023-06-22T16:09:30;38.67;27.53
66373;SHT30;53168;51.146;17.120;2023-06-22T16:15:59;39.11;27.50
66373;SHT30;53168;51.146;17.120;2023-06-22T16:19:59;39.26;27.45
66373;SHT30;53168;51.146;17.120;2023-06-22T16:23:26;38.70;27.45
66373;SHT30;53168;51.146;17.120;2023-06-22T16:26:43;38.36;27.54
66373;SHT30;53168;51.146;17.120;2023-06-22T16:29:38;37.92;27.65
66373;SHT30;53168;51.146;17.120;2023-06-22T16:32:13;37.66;27.97
66373;SHT30;53168;51.146;17.120;2023-06-22T16:35:38;37.42;28.05
66373;SHT30;53168;51.146;17.120;2023-06-22T16:39:17;37.24;28.24
66373;SHT30;53168;51.146;17.120;2023-06-22T16:41:53;37.22;28.33
66373;SHT30;53168;51.146;17.120;2023-06-22T16:44:45;37.16;28.50
66373;SHT30;53168;51.146;17.120;2023-06-22T16:47:28;37.05;28.56
66373;SHT30;53168;51.146;17.120;2023-06-22T16:52:10;36.60;28.74
66373;SHT30;53168;51.146;17.120;2023-06-22T16:54:47;36.41;28.92
66373;SHT30;53168;51.146;17.120;2023-06-22T16:57:26;36.29;29.20
66373;SHT30;53168;51.146;17.120;2023-06-22T17:00:00;36.10;29.45
66373;SHT30;53168;51.146;17.120;2023-06-22T17:02:47;36.14;29.47
66373;SHT30;53168;51.146;17.120;2023-06-22T17:05:53;36.04;29.67
66373;SHT30;53168;51.146;17.120;2023-06-22T17:08:33;35.65;30.04
66373;SHT30;53168;51.146;17.120;2023-06-22T17:11:14;35.19;30.45
66373;SHT30;53168;51.146;17.120;2023-06-22T17:13:55;34.53;31.07
66373;SHT30;53168;51.146;17.120;2023-06-22T17:16:32;34.13;31.56
66373;SHT30;53168;51.146;17.120;2023-06-22T17:19:07;34.01;31.86
66373;SHT30;53168;51.146;17.120;2023-06-22T17:21:42;34.12;31.95
66373;SHT30;53168;51.146;17.120;2023-06-22T17:24:19;34.15;32.04
66373;SHT30;53168;51.146;17.120;2023-06-22T17:30:15;33.61;32.38
66373;SHT30;53168;51.146;17.120;2023-06-22T17:35:54;32.98;33.10
66373;SHT30;53168;51.146;17.120;2023-06-22T17:39:04;32.47;33.77
66373;SHT30;53168;51.146;17.120;2023-06-22T17:41:56;32.04;34.48
66373;SHT30;53168;51.146;17.120;2023-06-22T17:44:51;31.67;35.03
66373;SHT30;53168;51.146;17.120;2023-06-22T17:47:51;31.28;35.65
66373;SHT30;53168;51.146;17.120;2023-06-22T17:51:36;30.90;36.33
66373;SHT30;53168;51.146;17.120;2023-06-22T17:54:40;30.58;36.72
66373;SHT30;53168;51.146;17.120;2023-06-22T17:58:02;30.33;36.57
66373;SHT30;53168;51.146;17.120;2023-06-22T18:01:35;30.13;36.52
66373;SHT30;53168;51.146;17.120;2023-06-22T18:04:23;29.90;36.55
66373;SHT30;53168;51.146;17.120;2023-06-22T18:07:14;29.70;36.65
66373;SHT30;53168;51.146;17.120;2023-06-22T18:12:58;29.25;37.09
66373;SHT30;53168;51.146;17.120;2023-06-22T18:16:00;29.06;37.36
66373;SHT30;53168;51.146;17.120;2023-06-22T18:18:53;28.87;37.59
66373;SHT30;53168;51.146;17.120;2023-06-22T18:21:33;28.70;37.80
66373;SHT30;53168;51.146;17.120;2023-06-22T18:24:16;28.57;38.04
66373;SHT30;53168;51.146;17.120;2023-06-22T18:27:11;28.40;38.40
66373;SHT30;53168;51.146;17.120;2023-06-22T18:29:57;28.23;38.65
66373;SHT30;53168;51.146;17.120;2023-06-22T18:32:35;28.09;38.94
66373;SHT30;53168;51.146;17.120;2023-06-22T18:35:29;27.93;39.21
66373;SHT30;53168;51.146;17.120;2023-06-22T18:38:06;27.80;39.43
66373;SHT30;53168;51.146;17.120;2023-06-22T18:40:50;27.67;39.61